Time;durP1;ratioP1;P1;durP2;ratioP2;P2;SDS_P1;SDS_P2;PMS_P1;PMS_P2;Temp;Humidity;BMP_temperature;BMP_pressure;BME280_temperature;BME280_humidity;BME280_pressure;Samples;Min_cycle;Max_cycle;Signal;HPM_P1;HPM_P2
2022/01/29 00:00:17;;;;;;;12.98;7.47;;;;;;;-2.22;66.07;96777.47;4965442;28;20103;-57
2022/01/29 00:02:42;;;;;;;13.48;6.55;;;;;;;-1.74;63.90;96775.28;4965307;28;20119;-57
2022/01/29 00:05:09;;;;;;;37.95;18.90;;;;;;;-2.05;64.28;96770.63;4965743;28;20134;-57
2022/01/29 00:07:34;;;;;;;10.88;6.25;;;;;;;-1.29;62.47;96761.84;4965943;28;20337;-58
2022/01/29 00:10:04;;;;;;;12.52;6.93;;;;;;;-1.26;62.84;96755.59;4965361;28;20099;-58
2022/01/29 00:12:30;;;;;;;13.02;6.82;;;;;;;-1.98;64.85;96754.63;4965249;28;20272;-58
2022/01/29 00:14:55;;;;;;;10.82;5.47;;;;;;;-2.26;66.31;96758.50;4965038;28;20099;-58
2022/01/29 00:17:20;;;;;;;15.40;7.55;;;;;;;-1.95;64.79;96758.00;4965067;28;20481;-58
2022/01/29 00:19:46;;;;;;;9.75;5.68;;;;;;;-1.60;63.73;96760.72;4965189;28;20111;-58
2022/01/29 00:22:11;;;;;;;13.98;5.07;;;;;;;-1.60;64.00;96769.41;4965108;28;20099;-58
2022/01/29 00:24:37;;;;;;;13.82;7.35;;;;;;;-1.70;64.16;96772.53;4973915;28;20094;-59
2022/01/29 00:27:08;;;;;;;9.63;6.03;;;;;;;-1.91;65.49;96760.41;4968628;28;20154;-59
2022/01/29 00:29:35;;;;;;;15.40;8.50;;;;;;;-2.57;66.99;96766.84;4964873;28;20126;-59
2022/01/29 00:32:00;;;;;;;13.40;6.22;;;;;;;-1.74;64.44;96754.38;4965138;28;20079;-59
2022/01/29 00:34:25;;;;;;;13.80;6.25;;;;;;;-1.35;63.34;96746.47;4964806;28;20672;-59
2022/01/29 00:36:51;;;;;;;13.18;7.90;;;;;;;-1.54;62.79;96744.75;4964791;28;20079;-59
2022/01/29 00:39:16;;;;;;;13.88;8.32;;;;;;;-2.20;66.37;96753.91;4966683;28;20398;-59
2022/01/29 00:41:42;;;;;;;16.25;8.02;;;;;;;-1.79;63.95;96759.00;4963485;28;20181;-59
2022/01/29 00:44:07;;;;;;;12.43;5.90;;;;;;;-1.43;64.31;96746.00;4964765;28;20363;-59
2022/01/29 00:46:33;;;;;;;13.60;6.90;;;;;;;-1.07;63.25;96745.09;4964380;28;20141;-59
2022/01/29 00:48:58;;;;;;;13.40;7.00;;;;;;;-0.90;61.89;96732.97;4963984;28;20106;-59
2022/01/29 00:51:24;;;;;;;12.98;6.95;;;;;;;-1.14;63.13;96735.88;4964475;28;20123;-59
2022/01/29 00:53:49;;;;;;;13.20;6.35;;;;;;;-1.18;62.50;96731.72;4964133;28;20111;-59
2022/01/29 00:56:14;;;;;;;10.13;5.50;;;;;;;-1.29;63.61;96733.09;4975293;28;20082;-59
2022/01/29 00:58:40;;;;;;;11.00;5.45;;;;;;;-1.41;64.06;96725.88;4965377;28;20115;-59
2022/01/29 01:01:06;;;;;;;17.42;6.95;;;;;;;-2.29;66.52;96727.34;4962905;28;20106;-59
2022/01/29 01:03:31;;;;;;;15.10;7.45;;;;;;;-2.12;66.16;96720.47;4963687;28;20472;-59
2022/01/29 01:05:57;;;;;;;10.32;6.20;;;;;;;-1.47;63.95;96706.09;4964255;28;20561;-59
2022/01/29 01:08:22;;;;;;;11.95;7.20;;;;;;;-1.63;64.44;96706.03;4964479;28;20087;-59
2022/01/29 01:10:48;;;;;;;12.65;6.43;;;;;;;-1.55;63.95;96703.88;4957434;28;20107;-59
2022/01/29 01:13:13;;;;;;;11.65;6.20;;;;;;;-1.63;65.01;96703.44;4965196;28;20075;-59
2022/01/29 01:15:38;;;;;;;12.55;6.45;;;;;;;-2.12;66.56;96697.00;4967480;28;20104;-59
2022/01/29 01:18:04;;;;;;;11.75;7.15;;;;;;;-2.40;67.82;96698.28;4953283;28;20107;-59
2022/01/29 01:20:29;;;;;;;14.27;8.10;;;;;;;-2.19;66.92;96698.19;4958388;28;20087;-59
2022/01/29 01:22:55;;;;;;;12.35;6.70;;;;;;;-1.54;64.85;96695.13;4964108;28;20103;-59
2022/01/29 01:25:20;;;;;;;10.50;5.20;;;;;;;-1.36;64.71;96695.13;4962858;28;20091;-59
2022/01/29 01:27:46;;;;;;;12.02;5.88;;;;;;;-1.92;66.19;96687.38;4965950;28;20161;-59
2022/01/29 01:30:12;;;;;;;13.60;6.97;;;;;;;-1.80;66.26;96678.94;4959065;28;20110;-59
2022/01/29 01:32:37;;;;;;;15.20;7.75;;;;;;;-1.80;66.74;96672.91;4963891;28;20079;-59
2022/01/29 01:35:18;;;;;;;14.80;7.28;;;;;;;-1.98;66.61;96675.47;4963792;28;20103;-59
2022/01/29 01:37:52;;;;;;;14.40;5.68;;;;;;;-1.82;65.73;96662.53;4962339;28;21655;-59
2022/01/29 01:40:19;;;;;;;18.27;8.15;;;;;;;-2.54;69.02;96671.06;4964093;28;20150;-58
2022/01/29 01:42:44;;;;;;;13.55;6.95;;;;;;;-1.76;66.04;96661.38;4963545;28;20114;-59
2022/01/29 01:45:10;;;;;;;11.82;6.10;;;;;;;-1.49;65.25;96655.72;4963925;28;20519;-58
2022/01/29 01:47:35;;;;;;;22.00;7.32;;;;;;;-1.78;65.63;96682.34;4963451;28;20492;-58
2022/01/29 01:50:01;;;;;;;15.20;7.25;;;;;;;-2.05;67.00;96653.19;4963630;28;20095;-58
2022/01/29 01:52:26;;;;;;;13.98;8.27;;;;;;;-2.44;68.57;96642.78;4963589;28;20149;-57
2022/01/29 01:54:52;;;;;;;9.27;5.63;;;;;;;-2.52;69.74;96637.06;4952262;28;20091;-58
2022/01/29 01:57:17;;;;;;;39.35;8.32;;;;;;;-2.13;68.42;96640.50;4969937;28;20091;-59
2022/01/29 01:59:43;;;;;;;13.32;6.05;;;;;;;-2.16;67.96;96638.91;4949662;28;20435;-59
2022/01/29 02:02:09;;;;;;;14.57;6.90;;;;;;;-2.31;69.44;96643.06;4959166;28;20111;-58
2022/01/29 02:04:34;;;;;;;15.10;7.90;;;;;;;-2.12;68.14;96648.28;4963257;28;20604;-59
2022/01/29 02:07:01;;;;;;;65.00;9.80;;;;;;;-2.95;71.24;96627.69;4962964;28;20115;-59
2022/01/29 02:09:27;;;;;;;50.83;9.15;;;;;;;-2.61;70.31;96630.53;4963501;28;20083;-58
2022/01/29 02:11:54;;;;;;;185.35;11.70;;;;;;;-2.38;69.43;96629.47;4962993;28;20600;-59
2022/01/29 02:14:20;;;;;;;93.20;9.88;;;;;;;-2.89;71.54;96626.56;4961630;28;20103;-59
2022/01/29 02:16:45;;;;;;;61.58;9.20;;;;;;;-3.11;72.86;96632.75;4963350;28;20079;-59
2022/01/29 02:19:11;;;;;;;42.03;7.80;;;;;;;-2.75;70.95;96634.63;4963050;28;20110;-59
2022/01/29 02:21:37;;;;;;;154.25;10.65;;;;;;;-2.69;70.69;96640.44;4958701;28;20119;-59
2022/01/29 02:24:02;;;;;;;12.60;5.97;;;;;;;-2.39;69.81;96621.72;4958573;28;20091;-59
2022/01/29 02:26:28;;;;;;;56.00;8.80;;;;;;;-3.22;72.77;96624.53;4971559;28;20110;-59
2022/01/29 02:28:54;;;;;;;228.75;14.93;;;;;;;-3.50;73.87;96615.31;4963048;28;20098;-59
2022/01/29 02:31:20;;;;;;;63.80;9.68;;;;;;;-2.72;71.78;96606.72;4962012;28;20529;-59
2022/01/29 02:33:45;;;;;;;104.35;9.60;;;;;;;-2.60;70.72;96606.16;4950025;28;20107;-59
2022/01/29 02:36:11;;;;;;;53.35;8.38;;;;;;;-2.57;71.23;96606.03;4949578;28;20137;-59
2022/01/29 02:38:36;;;;;;;116.03;10.90;;;;;;;-3.21;72.58;96597.56;4961483;28;20103;-59
2022/01/29 02:41:04;;;;;;;131.70;10.80;;;;;;;-3.08;72.57;96588.31;4955970;28;20080;-59
2022/01/29 02:43:35;;;;;;;290.98;15.93;;;;;;;-3.43;74.12;96583.72;4949802;28;20539;-59
2022/01/29 02:46:08;;;;;;;160.63;11.13;;;;;;;-3.24;73.34;96566.44;4959616;28;20115;-59
2022/01/29 02:48:33;;;;;;;247.60;13.20;;;;;;;-2.93;72.23;96572.88;4949156;28;20083;-59
2022/01/29 02:50:58;;;;;;;459.70;17.92;;;;;;;-2.90;71.86;96557.09;4961611;28;20698;-59
2022/01/29 02:53:24;;;;;;;274.10;12.63;;;;;;;-2.30;70.29;96555.22;4959460;28;20178;-59
2022/01/29 02:55:49;;;;;;;102.57;8.35;;;;;;;-1.95;68.14;96544.81;4951681;28;20114;-59
2022/01/29 02:58:15;;;;;;;344.63;13.57;;;;;;;-1.49;66.94;96548.63;4961531;28;20162;-59
2022/01/29 03:00:40;;;;;;;403.50;15.52;;;;;;;-1.91;67.86;96550.69;4972028;28;20095;-59
2022/01/29 03:03:06;;;;;;;97.53;6.57;;;;;;;-1.87;67.80;96552.25;4958134;28;20099;-59
2022/01/29 03:05:31;;;;;;;247.02;10.65;;;;;;;-1.76;67.72;96538.66;4966242;28;20103;-59
2022/01/29 03:07:56;;;;;;;357.50;14.75;;;;;;;-2.59;70.37;96533.97;4966635;28;20113;-59
2022/01/29 03:10:23;;;;;;;960.42;32.20;;;;;;;-3.21;72.79;96532.44;4953650;28;20414;-59
2022/01/29 03:12:48;;;;;;;396.23;15.95;;;;;;;-2.47;70.10;96540.38;4963393;28;20537;-59
2022/01/29 03:15:14;;;;;;;105.05;7.20;;;;;;;-2.45;70.74;96525.50;4964992;28;20114;-59
2022/01/29 03:17:39;;;;;;;274.33;11.27;;;;;;;-2.22;70.08;96524.38;4963589;28;20090;-59
2022/01/29 03:20:05;;;;;;;97.85;7.38;;;;;;;-1.92;68.23;96517.69;4965657;28;20077;-59
2022/01/29 03:22:31;;;;;;;509.33;17.73;;;;;;;-2.52;69.72;96523.19;4964820;28;20111;-59
2022/01/29 03:24:56;;;;;;;72.50;7.38;;;;;;;-2.12;69.72;96522.16;4961914;28;20107;-59
2022/01/29 03:27:21;;;;;;;718.55;23.40;;;;;;;-2.67;69.61;96534.34;4961112;28;20496;-59
2022/01/29 03:29:47;;;;;;;517.42;19.02;;;;;;;-2.75;71.31;96517.28;4966146;28;20667;-59
2022/01/29 03:32:12;;;;;;;155.07;8.77;;;;;;;-2.26;69.64;96517.63;4965452;28;20075;-59
2022/01/29 03:34:38;;;;;;;126.00;8.10;;;;;;;-2.39;70.45;96514.75;4960900;28;20095;-59
2022/01/29 03:37:03;;;;;;;420.17;16.73;;;;;;;-2.04;68.62;96514.78;4964161;28;20130;-59
2022/01/29 03:39:29;;;;;;;133.20;9.25;;;;;;;-2.25;69.68;96508.88;4964921;28;20118;-59
2022/01/29 03:42:00;;;;;;;176.00;9.55;;;;;;;-2.00;68.99;96511.09;4955301;28;20107;-59
2022/01/29 03:44:25;;;;;;;45.10;7.32;;;;;;;-2.28;70.08;96512.47;4962017;28;20095;-59
2022/01/29 03:46:51;;;;;;;467.02;18.63;;;;;;;-2.12;68.20;96511.72;4975030;28;20129;-59
2022/01/29 03:49:16;;;;;;;68.00;6.85;;;;;;;-1.68;67.82;96510.38;4953478;28;20417;-59
2022/01/29 03:51:41;;;;;;;487.15;19.48;;;;;;;-2.50;69.74;96518.75;4956175;28;20099;-59
2022/01/29 03:54:07;;;;;;;85.60;7.55;;;;;;;-1.30;65.57;96508.44;4963604;28;20158;-59
2022/01/29 03:56:32;;;;;;;49.42;7.93;;;;;;;-1.71;67.79;96505.31;4964235;28;20095;-59
2022/01/29 03:58:58;;;;;;;41.88;8.02;;;;;;;-1.86;68.18;96492.13;4964633;28;20099;-59
2022/01/29 04:01:23;;;;;;;84.25;11.98;;;;;;;-2.64;70.42;96505.53;4963920;28;20106;-59
2022/01/29 04:03:48;;;;;;;65.38;7.63;;;;;;;-1.75;68.75;96504.66;4959346;28;20079;-59
2022/01/29 04:06:14;;;;;;;24.27;6.70;;;;;;;-1.27;66.81;96503.91;4963045;28;20512;-59
2022/01/29 04:08:41;;;;;;;15.27;8.45;;;;;;;-1.81;66.80;96489.28;4962777;28;20095;-59
2022/01/29 04:11:12;;;;;;;15.38;8.27;;;;;;;-1.57;66.51;96491.53;4961318;28;20194;-59
2022/01/29 04:13:40;;;;;;;12.85;6.90;;;;;;;-1.65;67.77;96496.31;4952108;28;20581;-59
2022/01/29 04:16:06;;;;;;;11.48;6.57;;;;;;;-1.61;67.39;96492.63;4964289;28;20137;-59
2022/01/29 04:18:31;;;;;;;11.95;6.40;;;;;;;-1.59;68.39;96477.72;4958877;28;20111;-59
2022/01/29 04:20:56;;;;;;;17.13;7.75;;;;;;;-1.54;67.25;96480.09;4965130;28;20163;-59
2022/01/29 04:23:22;;;;;;;11.52;6.00;;;;;;;-1.54;67.26;96477.47;4960146;28;20579;-59
2022/01/29 04:25:51;;;;;;;14.05;7.93;;;;;;;-1.77;68.17;96475.16;4959964;28;20111;-59
2022/01/29 04:28:16;;;;;;;13.77;7.20;;;;;;;-1.12;65.59;96478.72;4965024;28;20071;-60
2022/01/29 04:30:49;;;;;;;17.30;7.90;;;;;;;-1.38;67.26;96483.59;4963435;28;20141;-59
2022/01/29 04:33:28;;;;;;;19.88;7.95;;;;;;;-1.82;70.11;96464.09;4963167;28;20079;-59
2022/01/29 04:35:53;;;;;;;28.67;7.40;;;;;;;-1.24;66.83;96440.19;4955233;28;20107;-60
2022/01/29 04:38:19;;;;;;;68.90;8.50;;;;;;;-2.10;69.55;96452.47;4959180;28;20133;-60
2022/01/29 04:40:44;;;;;;;40.35;6.53;;;;;;;-1.66;67.91;96453.69;4954833;28;20083;-60
2022/01/29 04:43:09;;;;;;;60.65;7.30;;;;;;;-1.88;68.50;96462.66;4962180;28;20672;-60
2022/01/29 04:45:35;;;;;;;88.45;7.63;;;;;;;-1.97;69.38;96465.72;4962527;28;20137;-60
2022/01/29 04:48:00;;;;;;;92.55;7.80;;;;;;;-1.89;68.97;96453.13;4955293;28;20083;-60
2022/01/29 04:50:26;;;;;;;399.35;18.48;;;;;;;-2.98;71.81;96453.25;4963688;28;20109;-60
2022/01/29 04:52:51;;;;;;;144.45;8.48;;;;;;;-2.50;72.93;96442.25;4962523;28;20118;-59
2022/01/29 04:55:17;;;;;;;136.00;10.38;;;;;;;-2.27;70.39;96454.16;4963814;28;20416;-60
2022/01/29 04:57:42;;;;;;;253.20;10.30;;;;;;;-2.05;70.06;96450.47;4965111;28;20110;-59
2022/01/29 05:00:10;;;;;;;417.55;16.30;;;;;;;-1.98;69.56;96448.38;4967827;28;20241;-60
2022/01/29 05:02:35;;;;;;;321.65;11.75;;;;;;;-2.29;71.34;96453.41;4958217;28;20636;-59
2022/01/29 05:05:02;;;;;;;153.30;8.73;;;;;;;-2.64;72.78;96463.81;4953086;28;20095;-60
2022/01/29 05:07:27;;;;;;;37.13;5.15;;;;;;;-2.91;73.28;96461.59;4971432;28;20115;-60
2022/01/29 05:09:52;;;;;;;139.75;8.55;;;;;;;-2.75;72.67;96451.31;4954739;28;20158;-60
2022/01/29 05:12:24;;;;;;;146.70;7.85;;;;;;;-2.82;74.21;96458.53;4963609;28;20425;-60
2022/01/29 05:28:04;;;;;;;206.27;7.32;;;;;;;-2.14;72.30;96440.50;4957974;28;20169;-61
2022/01/29 05:30:29;;;;;;;487.05;16.65;;;;;;;-2.06;71.52;96442.72;4958699;28;20153;-60
2022/01/29 05:32:55;;;;;;;124.90;6.07;;;;;;;-1.98;70.68;96449.22;4952488;28;20087;-60
2022/01/29 05:35:20;;;;;;;88.50;5.03;;;;;;;-2.13;69.53;96442.19;4961838;28;20107;-61
2022/01/29 05:37:49;;;;;;;115.05;6.20;;;;;;;-2.50;71.38;96444.88;4961022;28;20320;-60
2022/01/29 05:40:15;;;;;;;162.05;6.38;;;;;;;-1.80;69.72;96449.19;4955082;28;20451;-61
2022/01/29 05:42:40;;;;;;;222.65;8.82;;;;;;;-2.29;71.83;96434.28;4952656;28;20104;-61
2022/01/29 05:45:05;;;;;;;303.45;10.60;;;;;;;-2.75;73.64;96441.69;4959802;28;20175;-60
2022/01/29 05:47:31;;;;;;;41.55;3.80;;;;;;;-1.71;70.41;96432.19;4962628;28;20215;-61
2022/01/29 05:49:56;;;;;;;229.50;8.23;;;;;;;-1.70;70.96;96438.28;4960697;28;20102;-61
2022/01/29 05:52:22;;;;;;;114.82;4.53;;;;;;;-1.19;69.74;96437.31;4961591;28;20169;-61
2022/01/29 05:54:48;;;;;;;274.38;10.20;;;;;;;-1.23;68.73;96434.88;4963195;28;20111;-61
2022/01/29 05:57:14;;;;;;;441.42;13.07;;;;;;;-1.77;70.07;96429.91;4973619;28;20087;-61
2022/01/29 05:59:39;;;;;;;236.35;7.53;;;;;;;-1.40;69.43;96425.34;4962144;28;20697;-61
2022/01/29 06:02:05;;;;;;;611.45;16.75;;;;;;;-1.35;67.65;96419.88;4962318;28;20111;-62
2022/01/29 06:04:30;;;;;;;741.22;19.88;;;;;;;-2.30;70.75;96424.78;4950827;28;20107;-61
2022/01/29 06:06:55;;;;;;;809.08;23.08;;;;;;;-2.83;73.07;96415.16;4950421;28;20106;-62
2022/01/29 06:09:21;;;;;;;190.32;7.45;;;;;;;-2.12;72.49;96417.78;4963345;28;20577;-62
2022/01/29 06:11:46;;;;;;;178.80;6.45;;;;;;;-1.09;69.63;96407.13;4950724;28;20462;-61
2022/01/29 06:14:12;;;;;;;60.00;3.20;;;;;;;-1.25;67.48;96409.75;4948961;28;20111;-61
2022/01/29 06:16:38;;;;;;;548.92;15.95;;;;;;;-2.34;71.59;96407.59;4960262;28;20088;-61
2022/01/29 06:19:03;;;;;;;207.73;6.75;;;;;;;-1.20;68.95;96405.13;4961425;28;20099;-61
2022/01/29 06:21:29;;;;;;;118.45;5.55;;;;;;;-1.49;68.61;96411.00;4949517;28;20083;-62
2022/01/29 06:23:54;;;;;;;494.92;14.65;;;;;;;-1.26;67.93;96408.91;4960149;28;20075;-62
2022/01/29 06:26:19;;;;;;;321.63;8.57;;;;;;;-0.93;67.34;96406.28;4966146;28;20173;-62
2022/01/29 06:28:45;;;;;;;111.78;4.88;;;;;;;-0.78;66.68;96399.38;4963400;28;20456;-62
2022/01/29 06:31:10;;;;;;;155.48;5.50;;;;;;;-1.69;70.46;96403.41;4962633;28;20103;-61
2022/01/29 06:33:36;;;;;;;297.73;8.77;;;;;;;-1.95;72.73;96403.00;4945598;28;20087;-62
2022/01/29 06:36:01;;;;;;;297.40;11.27;;;;;;;-2.00;70.33;96385.00;4974084;28;20422;-61
2022/01/29 06:38:27;;;;;;;425.75;12.95;;;;;;;-1.91;70.67;96388.84;4962312;28;20524;-61
2022/01/29 06:40:52;;;;;;;320.88;10.95;;;;;;;-1.84;70.09;96392.84;4964971;28;20114;-61
2022/01/29 06:43:17;;;;;;;255.88;7.90;;;;;;;-1.87;70.73;96387.78;4965279;28;20194;-61
2022/01/29 06:45:44;;;;;;;13.55;2.25;;;;;;;-1.57;69.24;96386.25;4965429;28;20115;-61
2022/01/29 06:48:10;;;;;;;247.45;7.15;;;;;;;-1.25;68.23;96392.28;4966324;28;20087;-61
2022/01/29 06:50:35;;;;;;;1024.63;26.65;;;;;;;-2.69;71.60;96388.41;4963266;28;20441;-61
2022/01/29 06:53:01;;;;;;;290.80;9.25;;;;;;;-1.57;68.93;96388.84;4960225;28;20217;-61
2022/01/29 06:55:26;;;;;;;850.92;22.42;;;;;;;-1.98;69.59;96389.19;4959531;28;20325;-61
2022/01/29 06:57:52;;;;;;;254.77;7.78;;;;;;;-1.54;70.11;96384.28;4964543;28;20126;-62
2022/01/29 07:00:17;;;;;;;141.05;6.57;;;;;;;-1.94;69.64;96404.72;4955861;28;20091;-61
2022/01/29 07:02:43;;;;;;;652.33;18.30;;;;;;;-2.73;71.88;96393.84;4962178;28;20106;-61
2022/01/29 07:05:09;;;;;;;389.85;11.70;;;;;;;-2.09;72.36;96386.31;4965174;28;20592;-61
2022/01/29 07:07:34;;;;;;;206.77;5.75;;;;;;;-1.96;71.71;96378.69;4966116;28;20500;-61
2022/01/29 07:10:00;;;;;;;73.28;4.68;;;;;;;-1.97;70.45;96374.34;4966383;28;20103;-61
2022/01/29 07:12:26;;;;;;;289.38;7.65;;;;;;;-1.95;72.28;96374.28;4955256;28;20086;-62
2022/01/29 07:14:52;;;;;;;197.75;6.28;;;;;;;-2.31;73.88;96374.34;4960924;28;20202;-61
2022/01/29 07:17:17;;;;;;;318.42;10.43;;;;;;;-2.01;72.13;96372.84;4964765;28;20170;-62
2022/01/29 07:19:46;;;;;;;514.63;18.73;;;;;;;-2.26;72.52;96361.94;4962810;28;20170;-61
2022/01/29 07:22:11;;;;;;;735.25;18.23;;;;;;;-2.26;71.93;96372.38;4965231;28;20121;-62
2022/01/29 07:24:37;;;;;;;333.40;10.70;;;;;;;-2.04;72.72;96366.03;4963372;28;20140;-61
2022/01/29 07:27:03;;;;;;;571.15;15.63;;;;;;;-2.77;73.90;96373.16;4951129;28;20191;-61
2022/01/29 07:29:28;;;;;;;333.13;10.18;;;;;;;-2.83;74.67;96367.38;4963248;28;20076;-61
2022/01/29 07:31:55;;;;;;;640.53;17.48;;;;;;;-3.41;77.48;96370.97;4976265;28;20090;-61
2022/01/29 07:34:21;;;;;;;477.63;13.73;;;;;;;-3.09;76.83;96374.72;4962473;28;20110;-62
2022/01/29 07:36:47;;;;;;;476.40;14.00;;;;;;;-3.18;76.84;96363.84;4959183;28;20075;-62
2022/01/29 07:39:12;;;;;;;253.43;9.45;;;;;;;-2.92;75.73;96369.53;4962164;28;20585;-61
2022/01/29 07:41:37;;;;;;;565.63;15.73;;;;;;;-3.64;77.61;96390.25;4964954;28;20075;-60
2022/01/29 07:44:03;;;;;;;364.95;13.05;;;;;;;-3.02;77.15;96366.53;4957286;28;20079;-61
2022/01/29 07:46:28;;;;;;;232.57;9.00;;;;;;;-2.88;76.39;96372.84;4971557;28;20453;-61
2022/01/29 07:48:54;;;;;;;312.33;12.23;;;;;;;-3.09;75.80;96359.94;4961555;28;20573;-62
2022/01/29 07:51:19;;;;;;;657.42;18.40;;;;;;;-3.05;75.88;96361.47;4960843;28;20577;-60
2022/01/29 07:53:45;;;;;;;275.58;7.90;;;;;;;-2.51;74.20;96364.97;4960810;28;20126;-62
2022/01/29 07:56:10;;;;;;;322.35;8.82;;;;;;;-2.59;75.32;96367.94;4961423;28;20075;-62
2022/01/29 07:58:36;;;;;;;401.90;10.20;;;;;;;-2.69;75.20;96370.16;4960858;28;20644;-61
2022/01/29 08:01:01;;;;;;;692.28;19.08;;;;;;;-3.35;76.86;96371.59;4958087;28;20107;-61
2022/01/29 08:03:27;;;;;;;277.15;10.02;;;;;;;-2.64;74.75;96359.50;4961268;28;20428;-62
2022/01/29 08:05:52;;;;;;;589.42;16.40;;;;;;;-2.59;74.63;96362.72;4960103;28;20166;-61
2022/01/29 08:08:18;;;;;;;610.60;17.95;;;;;;;-2.54;74.39;96365.94;4961254;28;20084;-61
2022/01/29 08:10:43;;;;;;;687.05;17.27;;;;;;;-2.27;72.71;96360.22;4960861;28;20114;-60
2022/01/29 08:13:09;;;;;;;133.00;6.55;;;;;;;-2.26;72.91;96364.53;4961483;28;20075;-61
2022/01/29 08:15:34;;;;;;;276.25;12.07;;;;;;;-2.40;73.20;96351.38;4960751;28;20559;-61
2022/01/29 08:17:59;;;;;;;945.65;24.98;;;;;;;-2.57;74.66;96360.91;4970873;28;20114;-61
2022/01/29 08:20:25;;;;;;;617.80;16.85;;;;;;;-2.36;73.83;96365.94;4960900;28;20503;-61
2022/01/29 08:22:50;;;;;;;583.97;15.93;;;;;;;-2.28;73.90;96366.38;4960725;28;20106;-61
2022/01/29 08:25:16;;;;;;;614.08;18.30;;;;;;;-2.41;74.69;96360.94;4963087;28;20809;-60
2022/01/29 08:27:41;;;;;;;322.73;12.13;;;;;;;-2.91;76.84;96360.81;4970340;28;20580;-60
2022/01/29 08:30:06;;;;;;;686.95;19.15;;;;;;;-2.45;74.68;96376.84;4952165;28;20111;-61
2022/01/29 08:32:32;;;;;;;358.58;11.45;;;;;;;-2.43;74.52;96365.41;4978376;28;20083;-62
2022/01/29 08:34:57;;;;;;;744.75;20.33;;;;;;;-2.60;73.99;96361.03;4962107;28;20113;-62
2022/01/29 08:37:23;;;;;;;397.60;14.30;;;;;;;-2.40;74.75;96357.44;4963527;28;20347;-61
2022/01/29 08:39:48;;;;;;;445.83;14.80;;;;;;;-2.17;73.82;96347.53;4964560;28;20444;-61
2022/01/29 08:42:14;;;;;;;910.53;26.63;;;;;;;-2.71;75.92;96345.94;4951243;28;20103;-61
2022/01/29 08:44:40;;;;;;;850.85;24.10;;;;;;;-2.69;74.75;96344.09;4974142;28;20095;-60
2022/01/29 08:47:06;;;;;;;557.92;17.75;;;;;;;-3.22;78.09;96348.44;4964256;28;20580;-62
2022/01/29 08:49:31;;;;;;;345.08;12.50;;;;;;;-2.97;78.18;96342.88;4959498;28;20346;-61
2022/01/29 08:51:57;;;;;;;1155.13;32.42;;;;;;;-2.94;76.98;96352.28;4959648;28;20090;-61
2022/01/29 08:54:22;;;;;;;391.83;15.25;;;;;;;-2.69;76.09;96332.81;4962567;28;20592;-61
2022/01/29 08:56:48;;;;;;;670.47;21.30;;;;;;;-3.10;76.83;96331.34;4964003;28;20079;-61
2022/01/29 08:59:13;;;;;;;354.42;14.73;;;;;;;-3.11;77.25;96322.69;4959088;28;20099;-62
2022/01/29 09:01:38;;;;;;;552.08;19.40;;;;;;;-3.05;76.85;96326.75;4951433;28;20345;-60
2022/01/29 09:04:04;;;;;;;770.45;24.85;;;;;;;-3.20;77.89;96310.09;4955026;28;20146;-61
2022/01/29 09:06:29;;;;;;;468.25;21.52;;;;;;;-3.14;77.45;96318.47;4953874;28;20111;-61
2022/01/29 09:08:55;;;;;;;285.92;12.80;;;;;;;-3.00;76.86;96316.94;4963642;28;20453;-58
2022/01/29 09:11:20;;;;;;;647.17;20.73;;;;;;;-3.46;79.70;96315.66;4963258;28;20103;-59
2022/01/29 09:13:46;;;;;;;391.08;13.88;;;;;;;-3.09;78.68;96310.41;4963419;28;20110;-60
2022/01/29 09:16:11;;;;;;;807.35;26.67;;;;;;;-3.06;77.93;96312.06;4963661;28;20091;-59
2022/01/29 09:18:37;;;;;;;630.53;20.83;;;;;;;-3.05;77.88;96298.94;4963366;28;20479;-59
2022/01/29 09:21:03;;;;;;;376.70;15.38;;;;;;;-3.29;79.20;96304.44;4963218;28;20545;-59
2022/01/29 09:23:28;;;;;;;292.42;14.30;;;;;;;-3.05;78.45;96293.72;4961726;28;20162;-60
2022/01/29 09:25:55;;;;;;;737.60;22.23;;;;;;;-3.33;79.06;96297.69;4962919;28;20107;-59
2022/01/29 09:28:21;;;;;;;382.35;15.63;;;;;;;-2.72;77.16;96293.88;4963312;28;20174;-59
2022/01/29 09:30:46;;;;;;;244.88;11.50;;;;;;;-2.71;76.81;96298.16;4975290;28;20110;-59
2022/01/29 09:33:12;;;;;;;565.42;18.63;;;;;;;-2.79;77.64;96291.56;4962739;28;20360;-60
2022/01/29 09:35:40;;;;;;;325.60;12.80;;;;;;;-2.67;76.96;96294.47;4962573;28;20099;-60
2022/01/29 09:38:06;;;;;;;339.85;14.48;;;;;;;-2.80;76.74;96289.03;4962442;28;20233;-59
2022/01/29 09:40:32;;;;;;;525.70;18.50;;;;;;;-2.30;75.12;96310.00;4962337;28;20578;-60
2022/01/29 09:42:59;;;;;;;578.17;18.90;;;;;;;-2.54;76.62;96292.91;4960837;28;20114;-59
2022/01/29 09:45:24;;;;;;;792.85;28.05;;;;;;;-2.56;75.12;96291.31;4966492;28;20316;-60
2022/01/29 09:47:50;;;;;;;267.75;12.68;;;;;;;-2.20;75.70;96287.72;4968190;28;20110;-58
2022/01/29 09:50:16;;;;;;;457.52;14.98;;;;;;;-2.12;74.58;96284.69;4961139;28;20111;-59
2022/01/29 09:52:42;;;;;;;838.42;26.88;;;;;;;-2.52;75.57;96287.63;4962295;28;20119;-59
2022/01/29 09:55:08;;;;;;;455.90;14.38;;;;;;;-2.33;76.12;96290.13;4960291;28;20103;-59
2022/01/29 09:57:33;;;;;;;181.32;9.25;;;;;;;-1.77;73.64;96275.84;4954100;28;20094;-59
2022/01/29 09:59:59;;;;;;;909.00;28.42;;;;;;;-2.14;73.68;96279.53;4962605;28;20118;-59
2022/01/29 10:02:24;;;;;;;238.32;12.60;;;;;;;-1.77;73.32;96281.06;4961712;28;20134;-59
2022/01/29 10:04:51;;;;;;;185.27;9.73;;;;;;;-1.79;73.94;96281.19;4962022;28;20187;-59
2022/01/29 10:07:18;;;;;;;176.70;8.57;;;;;;;-1.53;72.74;96284.09;4949762;28;20620;-59
2022/01/29 10:09:44;;;;;;;14.32;2.50;;;;;;;-1.23;71.71;96279.84;4957013;28;20478;-59
2022/01/29 10:12:21;;;;;;;62.58;4.43;;;;;;;-1.18;72.19;96262.16;4956403;28;20083;-58
2022/01/29 10:15:06;;;;;;;98.90;6.05;;;;;;;-1.37;71.26;96270.19;4962277;28;20102;-59
2022/01/29 10:17:47;;;;;;;115.57;5.85;;;;;;;-1.03;72.02;96281.31;4960978;28;20165;-59
2022/01/29 10:20:23;;;;;;;8.45;2.28;;;;;;;-1.00;69.65;96280.28;4962560;28;20083;-59
2022/01/29 10:22:54;;;;;;;172.70;7.72;;;;;;;-1.08;70.69;96278.97;4961400;28;20592;-60
2022/01/29 10:25:32;;;;;;;13.27;3.22;;;;;;;-0.98;71.97;96263.59;4965151;28;20460;-60
2022/01/29 10:28:07;;;;;;;85.55;5.20;;;;;;;-0.36;69.36;96274.84;4973569;28;20102;-59
2022/01/29 10:30:34;;;;;;;4.90;2.97;;;;;;;-0.70;69.15;96272.44;4952920;28;20111;-60
2022/01/29 10:33:18;;;;;;;3.38;2.78;;;;;;;-0.99;71.89;96266.28;4960668;28;20081;-60
2022/01/29 10:35:45;;;;;;;4.07;2.60;;;;;;;-1.15;73.12;96280.25;4961113;28;20169;-59
2022/01/29 10:38:11;;;;;;;2.00;1.90;;;;;;;-0.97;72.08;96269.66;4955657;28;20414;-60
2022/01/29 10:40:38;;;;;;;4.63;2.72;;;;;;;-1.25;72.88;96269.47;4971386;28;20086;-60
2022/01/29 10:43:07;;;;;;;3.83;3.00;;;;;;;-1.39;73.97;96253.78;4961156;28;20638;-59
2022/01/29 10:45:33;;;;;;;4.22;3.30;;;;;;;-1.79;74.05;96252.47;4961760;28;20098;-59
2022/01/29 10:47:59;;;;;;;3.65;2.42;;;;;;;-1.18;73.49;96253.47;4961361;28;20956;-60
2022/01/29 10:50:25;;;;;;;2.60;2.40;;;;;;;-1.13;73.57;96265.31;4961365;28;20343;-59
2022/01/29 10:52:50;;;;;;;3.20;2.58;;;;;;;-1.19;73.49;96250.00;4966672;28;20721;-59
2022/01/29 10:55:16;;;;;;;2.88;2.28;;;;;;;-1.35;73.73;96244.81;4972240;28;20117;-59
2022/01/29 10:57:43;;;;;;;2.63;2.42;;;;;;;-1.27;73.75;96247.84;4969858;28;20110;-60
2022/01/29 11:00:20;;;;;;;3.45;2.50;;;;;;;-0.98;72.38;96242.66;4949020;28;20190;-60
2022/01/29 11:02:46;;;;;;;3.25;2.30;;;;;;;-1.10;72.36;96239.03;4960317;28;20592;-58
2022/01/29 11:05:11;;;;;;;2.55;2.33;;;;;;;-1.09;72.69;96242.47;4960238;28;20091;-59
2022/01/29 11:07:37;;;;;;;3.75;3.15;;;;;;;-1.70;74.90;96248.47;4959707;28;20101;-58
2022/01/29 11:10:05;;;;;;;2.67;2.20;;;;;;;-1.42;74.31;96233.03;4960463;28;20119;-59
2022/01/29 11:12:30;;;;;;;4.47;2.70;;;;;;;-1.29;73.86;96259.31;4960173;28;20130;-59
2022/01/29 11:15:01;;;;;;;2.72;2.17;;;;;;;-1.17;74.38;96231.59;4959422;28;20194;-59
2022/01/29 11:17:27;;;;;;;3.60;2.60;;;;;;;-0.83;72.52;96224.44;4959953;28;20083;-59
2022/01/29 11:19:53;;;;;;;2.20;2.00;;;;;;;-0.84;71.59;96222.75;4960414;28;20075;-59
2022/01/29 11:22:23;;;;;;;3.45;2.75;;;;;;;-0.83;72.43;96216.59;4959582;28;20110;-60
2022/01/29 11:24:59;;;;;;;4.53;2.72;;;;;;;-1.11;72.56;96215.59;4942065;28;20174;-59
2022/01/29 11:27:32;;;;;;;2.40;2.10;;;;;;;-0.99;72.47;96214.84;4957154;28;20113;-59